sensor_id;sensor_type;location;lat;lon;timestamp;P1;durP1;ratioP1;P2;durP2;ratioP2
13425;SDS011;6785;57.918;12.530;2023-05-10T00:02:07;4.17;;;2.87;;
13425;SDS011;6785;57.918;12.530;2023-05-10T00:04:34;5.80;;;3.03;;
13425;SDS011;6785;57.918;12.530;2023-05-10T00:07:00;4.23;;;3.07;;
13425;SDS011;6785;57.918;12.530;2023-05-10T00:09:27;5.57;;;3.37;;
13425;SDS011;6785;57.918;12.530;2023-05-10T00:11:54;6.10;;;2.77;;
13425;SDS011;6785;57.918;12.530;2023-05-10T00:14:23;5.77;;;2.83;;
13425;SDS011;6785;57.918;12.530;2023-05-10T00:16:50;6.13;;;2.80;;
13425;SDS011;6785;57.918;12.530;2023-05-10T00:19:18;6.23;;;3.03;;
13425;SDS011;6785;57.918;12.530;2023-05-10T00:21:44;4.17;;;2.63;;
13425;SDS011;6785;57.918;12.530;2023-05-10T00:24:11;3.47;;;2.70;;
13425;SDS011;6785;57.918;12.530;2023-05-10T00:26:38;6.80;;;3.20;;
13425;SDS011;6785;57.918;12.530;2023-05-10T00:29:05;4.10;;;2.97;;
13425;SDS011;6785;57.918;12.530;2023-05-10T00:31:32;6.50;;;3.10;;
13425;SDS011;6785;57.918;12.530;2023-05-10T00:33:59;4.03;;;3.00;;
13425;SDS011;6785;57.918;12.530;2023-05-10T00:36:27;5.30;;;3.00;;
13425;SDS011;6785;57.918;12.530;2023-05-10T00:38:54;6.20;;;3.03;;
13425;SDS011;6785;57.918;12.530;2023-05-10T00:41:21;4.57;;;2.93;;
13425;SDS011;6785;57.918;12.530;2023-05-10T00:43:47;4.30;;;2.90;;
13425;SDS011;6785;57.918;12.530;2023-05-10T00:46:14;5.60;;;2.93;;
13425;SDS011;6785;57.918;12.530;2023-05-10T00:48:42;5.30;;;2.80;;
13425;SDS011;6785;57.918;12.530;2023-05-10T00:51:09;6.47;;;3.37;;
13425;SDS011;6785;57.918;12.530;2023-05-10T00:53:37;4.23;;;3.40;;
13425;SDS011;6785;57.918;12.530;2023-05-10T00:56:04;5.83;;;3.37;;
13425;SDS011;6785;57.918;12.530;2023-05-10T00:58:31;3.03;;;2.73;;
13425;SDS011;6785;57.918;12.530;2023-05-10T01:00:58;4.73;;;3.00;;
13425;SDS011;6785;57.918;12.530;2023-05-10T01:03:26;8.33;;;3.17;;
13425;SDS011;6785;57.918;12.530;2023-05-10T01:05:53;5.10;;;3.13;;
13425;SDS011;6785;57.918;12.530;2023-05-10T01:08:20;4.90;;;3.17;;
13425;SDS011;6785;57.918;12.530;2023-05-10T01:10:48;6.77;;;3.30;;
13425;SDS011;6785;57.918;12.530;2023-05-10T01:13:17;6.07;;;3.10;;
13425;SDS011;6785;57.918;12.530;2023-05-10T01:15:51;5.57;;;3.17;;
13425;SDS011;6785;57.918;12.530;2023-05-10T01:18:19;9.07;;;3.10;;
13425;SDS011;6785;57.918;12.530;2023-05-10T01:20:48;6.40;;;2.73;;
13425;SDS011;6785;57.918;12.530;2023-05-10T01:23:28;3.37;;;2.80;;
13425;SDS011;6785;57.918;12.530;2023-05-10T01:26:11;3.43;;;3.03;;
13425;SDS011;6785;57.918;12.530;2023-05-10T01:28:54;4.10;;;2.90;;
13425;SDS011;6785;57.918;12.530;2023-05-10T01:31:55;8.90;;;3.47;;
13425;SDS011;6785;57.918;12.530;2023-05-10T01:34:32;4.97;;;3.03;;
13425;SDS011;6785;57.918;12.530;2023-05-10T01:37:02;3.87;;;2.73;;
13425;SDS011;6785;57.918;12.530;2023-05-10T01:39:36;8.83;;;3.07;;
13425;SDS011;6785;57.918;12.530;2023-05-10T01:42:11;3.83;;;3.03;;
13425;SDS011;6785;57.918;12.530;2023-05-10T01:44:46;4.03;;;3.27;;
13425;SDS011;6785;57.918;12.530;2023-05-10T01:47:26;6.00;;;3.23;;
13425;SDS011;6785;57.918;12.530;2023-05-10T01:50:01;6.80;;;3.10;;
13425;SDS011;6785;57.918;12.530;2023-05-10T01:52:32;10.97;;;3.10;;
13425;SDS011;6785;57.918;12.530;2023-05-10T01:55:04;8.77;;;3.20;;
13425;SDS011;6785;57.918;12.530;2023-05-10T01:57:34;4.53;;;3.20;;
13425;SDS011;6785;57.918;12.530;2023-05-10T02:00:04;5.67;;;3.13;;
13425;SDS011;6785;57.918;12.530;2023-05-10T02:02:36;7.93;;;3.57;;
13425;SDS011;6785;57.918;12.530;2023-05-10T02:05:05;10.67;;;3.10;;
13425;SDS011;6785;57.918;12.530;2023-05-10T02:07:33;5.17;;;3.23;;
13425;SDS011;6785;57.918;12.530;2023-05-10T02:10:02;4.60;;;2.90;;
13425;SDS011;6785;57.918;12.530;2023-05-10T02:12:31;3.73;;;2.83;;
13425;SDS011;6785;57.918;12.530;2023-05-10T02:15:01;5.63;;;3.10;;
13425;SDS011;6785;57.918;12.530;2023-05-10T02:17:31;7.33;;;2.73;;
13425;SDS011;6785;57.918;12.530;2023-05-10T02:20:00;4.23;;;2.90;;
13425;SDS011;6785;57.918;12.530;2023-05-10T02:22:29;3.80;;;2.90;;
13425;SDS011;6785;57.918;12.530;2023-05-10T02:24:56;5.47;;;3.00;;
13425;SDS011;6785;57.918;12.530;2023-05-10T02:27:24;4.03;;;3.00;;
13425;SDS011;6785;57.918;12.530;2023-05-10T02:29:53;6.90;;;3.27;;
13425;SDS011;6785;57.918;12.530;2023-05-10T02:32:21;5.37;;;3.07;;
13425;SDS011;6785;57.918;12.530;2023-05-10T02:34:48;4.17;;;3.03;;
13425;SDS011;6785;57.918;12.530;2023-05-10T02:37:18;7.37;;;3.33;;
13425;SDS011;6785;57.918;12.530;2023-05-10T02:39:46;7.90;;;3.27;;
13425;SDS011;6785;57.918;12.530;2023-05-10T02:42:14;5.17;;;3.37;;
13425;SDS011;6785;57.918;12.530;2023-05-10T02:44:44;4.10;;;3.20;;
13425;SDS011;6785;57.918;12.530;2023-05-10T02:47:13;11.37;;;3.20;;
13425;SDS011;6785;57.918;12.530;2023-05-10T02:49:41;7.77;;;3.10;;
13425;SDS011;6785;57.918;12.530;2023-05-10T02:52:08;6.37;;;3.53;;
13425;SDS011;6785;57.918;12.530;2023-05-10T02:54:38;5.90;;;3.67;;
13425;SDS011;6785;57.918;12.530;2023-05-10T02:57:10;4.07;;;2.90;;
13425;SDS011;6785;57.918;12.530;2023-05-10T02:59:40;4.87;;;3.30;;
13425;SDS011;6785;57.918;12.530;2023-05-10T03:02:10;4.23;;;3.33;;
13425;SDS011;6785;57.918;12.530;2023-05-10T03:04:37;9.57;;;3.57;;
13425;SDS011;6785;57.918;12.530;2023-05-10T03:07:04;9.20;;;3.77;;
13425;SDS011;6785;57.918;12.530;2023-05-10T03:09:30;5.63;;;3.53;;
13425;SDS011;6785;57.918;12.530;2023-05-10T03:12:02;4.67;;;3.17;;
13425;SDS011;6785;57.918;12.530;2023-05-10T03:14:39;3.90;;;3.00;;
13425;SDS011;6785;57.918;12.530;2023-05-10T03:17:15;6.73;;;3.13;;
13425;SDS011;6785;57.918;12.530;2023-05-10T03:19:50;6.73;;;2.63;;
13425;SDS011;6785;57.918;12.530;2023-05-10T03:22:21;6.47;;;3.20;;
13425;SDS011;6785;57.918;12.530;2023-05-10T03:24:51;4.97;;;3.53;;
13425;SDS011;6785;57.918;12.530;2023-05-10T03:27:22;4.97;;;3.27;;
13425;SDS011;6785;57.918;12.530;2023-05-10T03:29:52;5.77;;;3.47;;
13425;SDS011;6785;57.918;12.530;2023-05-10T03:32:19;7.53;;;3.57;;
13425;SDS011;6785;57.918;12.530;2023-05-10T03:34:46;4.10;;;2.93;;
13425;SDS011;6785;57.918;12.530;2023-05-10T03:37:13;10.23;;;3.33;;
13425;SDS011;6785;57.918;12.530;2023-05-10T03:39:40;4.43;;;3.23;;
13425;SDS011;6785;57.918;12.530;2023-05-10T03:42:06;4.90;;;3.40;;
13425;SDS011;6785;57.918;12.530;2023-05-10T03:44:34;6.73;;;3.53;;
13425;SDS011;6785;57.918;12.530;2023-05-10T03:47:02;8.67;;;3.00;;
13425;SDS011;6785;57.918;12.530;2023-05-10T03:49:28;6.87;;;3.23;;
13425;SDS011;6785;57.918;12.530;2023-05-10T03:51:55;5.50;;;3.03;;
13425;SDS011;6785;57.918;12.530;2023-05-10T03:54:22;5.83;;;2.93;;
13425;SDS011;6785;57.918;12.530;2023-05-10T03:56:49;4.40;;;3.00;;
13425;SDS011;6785;57.918;12.530;2023-05-10T03:59:15;4.50;;;3.27;;
13425;SDS011;6785;57.918;12.530;2023-05-10T04:01:43;4.83;;;3.70;;
13425;SDS011;6785;57.918;12.530;2023-05-10T04:04:10;5.27;;;3.20;;
13425;SDS011;6785;57.918;12.530;2023-05-10T04:06:37;8.33;;;3.63;;
13425;SDS011;6785;57.918;12.530;2023-05-10T04:09:04;4.13;;;3.37;;
13425;SDS011;6785;57.918;12.530;2023-05-10T04:11:30;6.23;;;3.30;;
13425;SDS011;6785;57.918;12.530;2023-05-10T04:13:57;6.17;;;3.13;;
13425;SDS011;6785;57.918;12.530;2023-05-10T04:16:24;5.23;;;3.17;;
13425;SDS011;6785;57.918;12.530;2023-05-10T04:18:52;7.07;;;3.17;;
13425;SDS011;6785;57.918;12.530;2023-05-10T04:21:19;4.97;;;3.27;;
13425;SDS011;6785;57.918;12.530;2023-05-10T04:23:45;4.60;;;3.03;;
13425;SDS011;6785;57.918;12.530;2023-05-10T04:26:12;3.97;;;3.10;;
13425;SDS011;6785;57.918;12.530;2023-05-10T04:28:39;4.83;;;3.40;;
13425;SDS011;6785;57.918;12.530;2023-05-10T04:31:06;6.33;;;3.67;;
13425;SDS011;6785;57.918;12.530;2023-05-10T04:33:35;4.47;;;3.33;;
13425;SDS011;6785;57.918;12.530;2023-05-10T04:36:03;5.07;;;3.17;;
13425;SDS011;6785;57.918;12.530;2023-05-10T04:38:31;5.83;;;3.33;;
13425;SDS011;6785;57.918;12.530;2023-05-10T04:41:04;3.97;;;3.07;;
13425;SDS011;6785;57.918;12.530;2023-05-10T04:43:31;3.43;;;2.90;;
13425;SDS011;6785;57.918;12.530;2023-05-10T04:46:01;6.27;;;3.30;;
13425;SDS011;6785;57.918;12.530;2023-05-10T04:48:28;8.07;;;3.50;;
13425;SDS011;6785;57.918;12.530;2023-05-10T04:50:55;6.23;;;3.43;;
13425;SDS011;6785;57.918;12.530;2023-05-10T04:53:23;4.40;;;3.30;;
13425;SDS011;6785;57.918;12.530;2023-05-10T04:55:50;3.70;;;3.00;;
13425;SDS011;6785;57.918;12.530;2023-05-10T04:58:16;4.17;;;3.00;;
13425;SDS011;6785;57.918;12.530;2023-05-10T05:00:43;5.30;;;3.40;;
13425;SDS011;6785;57.918;12.530;2023-05-10T05:03:10;5.33;;;3.20;;
13425;SDS011;6785;57.918;12.530;2023-05-10T05:05:36;6.63;;;3.47;;
13425;SDS011;6785;57.918;12.530;2023-05-10T05:08:03;7.13;;;3.33;;
13425;SDS011;6785;57.918;12.530;2023-05-10T05:10:32;6.10;;;3.40;;
13425;SDS011;6785;57.918;12.530;2023-05-10T05:13:06;6.63;;;3.27;;
13425;SDS011;6785;57.918;12.530;2023-05-10T05:15:42;3.90;;;2.97;;
13425;SDS011;6785;57.918;12.530;2023-05-10T05:18:09;4.73;;;3.17;;
13425;SDS011;6785;57.918;12.530;2023-05-10T05:20:35;5.00;;;3.30;;
13425;SDS011;6785;57.918;12.530;2023-05-10T05:23:02;8.93;;;4.00;;
13425;SDS011;6785;57.918;12.530;2023-05-10T05:25:29;7.33;;;3.10;;
13425;SDS011;6785;57.918;12.530;2023-05-10T05:27:57;3.87;;;3.00;;
13425;SDS011;6785;57.918;12.530;2023-05-10T05:30:24;3.57;;;2.70;;
13425;SDS011;6785;57.918;12.530;2023-05-10T05:32:51;6.43;;;3.43;;
13425;SDS011;6785;57.918;12.530;2023-05-10T05:35:17;8.17;;;2.90;;
13425;SDS011;6785;57.918;12.530;2023-05-10T05:37:44;6.30;;;3.33;;
13425;SDS011;6785;57.918;12.530;2023-05-10T05:40:12;7.93;;;3.10;;
13425;SDS011;6785;57.918;12.530;2023-05-10T05:42:39;5.60;;;3.70;;
13425;SDS011;6785;57.918;12.530;2023-05-10T05:45:08;4.60;;;3.10;;
13425;SDS011;6785;57.918;12.530;2023-05-10T05:47:37;4.70;;;2.97;;
13425;SDS011;6785;57.918;12.530;2023-05-10T05:50:05;5.93;;;3.40;;
13425;SDS011;6785;57.918;12.530;2023-05-10T05:52:32;5.20;;;3.40;;
13425;SDS011;6785;57.918;12.530;2023-05-10T05:54:59;4.97;;;3.37;;
13425;SDS011;6785;57.918;12.530;2023-05-10T05:57:25;4.47;;;3.10;;
13425;SDS011;6785;57.918;12.530;2023-05-10T05:59:52;3.50;;;3.03;;
13425;SDS011;6785;57.918;12.530;2023-05-10T06:02:20;3.37;;;2.93;;
13425;SDS011;6785;57.918;12.530;2023-05-10T06:04:47;4.83;;;2.93;;
13425;SDS011;6785;57.918;12.530;2023-05-10T06:07:14;5.90;;;3.00;;
13425;SDS011;6785;57.918;12.530;2023-05-10T06:09:41;5.80;;;3.40;;
13425;SDS011;6785;57.918;12.530;2023-05-10T06:12:08;6.87;;;3.10;;
13425;SDS011;6785;57.918;12.530;2023-05-10T06:14:36;6.07;;;3.10;;
13425;SDS011;6785;57.918;12.530;2023-05-10T06:17:03;4.07;;;3.23;;
13425;SDS011;6785;57.918;12.530;2023-05-10T06:19:31;7.27;;;3.10;;
13425;SDS011;6785;57.918;12.530;2023-05-10T06:21:58;3.73;;;3.20;;
13425;SDS011;6785;57.918;12.530;2023-05-10T06:24:24;9.87;;;3.60;;
13425;SDS011;6785;57.918;12.530;2023-05-10T06:26:52;6.97;;;3.07;;
13425;SDS011;6785;57.918;12.530;2023-05-10T06:29:18;3.73;;;2.87;;
13425;SDS011;6785;57.918;12.530;2023-05-10T06:31:45;4.80;;;3.23;;
13425;SDS011;6785;57.918;12.530;2023-05-10T06:34:13;6.30;;;2.77;;
13425;SDS011;6785;57.918;12.530;2023-05-10T06:36:41;6.87;;;3.10;;
13425;SDS011;6785;57.918;12.530;2023-05-10T06:39:07;5.03;;;3.23;;
13425;SDS011;6785;57.918;12.530;2023-05-10T06:41:36;4.40;;;2.80;;
13425;SDS011;6785;57.918;12.530;2023-05-10T06:44:03;3.70;;;2.93;;
13425;SDS011;6785;57.918;12.530;2023-05-10T06:46:30;7.17;;;2.90;;
13425;SDS011;6785;57.918;12.530;2023-05-10T06:48:56;6.93;;;3.40;;
13425;SDS011;6785;57.918;12.530;2023-05-10T06:51:23;7.10;;;3.40;;
13425;SDS011;6785;57.918;12.530;2023-05-10T06:53:51;7.63;;;3.37;;
13425;SDS011;6785;57.918;12.530;2023-05-10T06:56:19;4.43;;;3.10;;
13425;SDS011;6785;57.918;12.530;2023-05-10T06:58:46;7.40;;;3.20;;
13425;SDS011;6785;57.918;12.530;2023-05-10T07:01:14;5.73;;;3.23;;
13425;SDS011;6785;57.918;12.530;2023-05-10T07:03:40;5.13;;;2.90;;
13425;SDS011;6785;57.918;12.530;2023-05-10T07:06:07;3.50;;;2.70;;
13425;SDS011;6785;57.918;12.530;2023-05-10T07:08:34;6.93;;;2.83;;
13425;SDS011;6785;57.918;12.530;2023-05-10T07:11:03;3.30;;;2.80;;
13425;SDS011;6785;57.918;12.530;2023-05-10T07:13:32;3.53;;;2.70;;
13425;SDS011;6785;57.918;12.530;2023-05-10T07:15:59;7.77;;;3.40;;
13425;SDS011;6785;57.918;12.530;2023-05-10T07:18:26;4.77;;;3.07;;
13425;SDS011;6785;57.918;12.530;2023-05-10T07:20:53;5.87;;;3.10;;
13425;SDS011;6785;57.918;12.530;2023-05-10T07:23:20;3.90;;;2.93;;
13425;SDS011;6785;57.918;12.530;2023-05-10T07:25:47;4.90;;;3.23;;
13425;SDS011;6785;57.918;12.530;2023-05-10T07:28:15;4.57;;;2.87;;
13425;SDS011;6785;57.918;12.530;2023-05-10T07:30:42;6.63;;;3.10;;
13425;SDS011;6785;57.918;12.530;2023-05-10T07:33:10;4.90;;;3.10;;
13425;SDS011;6785;57.918;12.530;2023-05-10T07:35:38;3.30;;;3.00;;
13425;SDS011;6785;57.918;12.530;2023-05-10T07:38:05;6.50;;;3.20;;
13425;SDS011;6785;57.918;12.530;2023-05-10T07:40:32;4.57;;;3.00;;
13425;SDS011;6785;57.918;12.530;2023-05-10T07:42:59;4.80;;;3.07;;
13425;SDS011;6785;57.918;12.530;2023-05-10T07:45:28;8.70;;;3.00;;
13425;SDS011;6785;57.918;12.530;2023-05-10T07:47:54;4.07;;;3.03;;
13425;SDS011;6785;57.918;12.530;2023-05-10T07:50:21;2.97;;;2.67;;
13425;SDS011;6785;57.918;12.530;2023-05-10T07:52:51;4.43;;;3.30;;
13425;SDS011;6785;57.918;12.530;2023-05-10T07:55:18;5.17;;;3.27;;
13425;SDS011;6785;57.918;12.530;2023-05-10T07:57:46;4.30;;;2.70;;
13425;SDS011;6785;57.918;12.530;2023-05-10T08:00:16;4.30;;;3.10;;
13425;SDS011;6785;57.918;12.530;2023-05-10T08:02:46;6.73;;;2.80;;
13425;SDS011;6785;57.918;12.530;2023-05-10T08:05:13;5.40;;;3.03;;
13425;SDS011;6785;57.918;12.530;2023-05-10T08:07:42;4.30;;;3.17;;
13425;SDS011;6785;57.918;12.530;2023-05-10T08:10:10;7.53;;;3.03;;
13425;SDS011;6785;57.918;12.530;2023-05-10T08:12:37;3.87;;;2.97;;
13425;SDS011;6785;57.918;12.530;2023-05-10T08:15:04;4.73;;;3.30;;
13425;SDS011;6785;57.918;12.530;2023-05-10T08:17:32;7.17;;;3.10;;
13425;SDS011;6785;57.918;12.530;2023-05-10T08:20:00;3.30;;;2.90;;
13425;SDS011;6785;57.918;12.530;2023-05-10T08:22:26;4.10;;;2.60;;
13425;SDS011;6785;57.918;12.530;2023-05-10T08:24:53;5.03;;;3.37;;
13425;SDS011;6785;57.918;12.530;2023-05-10T08:27:20;3.90;;;3.07;;
13425;SDS011;6785;57.918;12.530;2023-05-10T08:29:47;3.67;;;2.80;;
13425;SDS011;6785;57.918;12.530;2023-05-10T08:32:13;6.77;;;3.00;;
13425;SDS011;6785;57.918;12.530;2023-05-10T08:34:40;5.03;;;2.60;;
13425;SDS011;6785;57.918;12.530;2023-05-10T08:37:08;5.47;;;2.90;;
13425;SDS011;6785;57.918;12.530;2023-05-10T08:39:38;5.27;;;2.57;;
13425;SDS011;6785;57.918;12.530;2023-05-10T08:42:04;6.57;;;2.70;;
13425;SDS011;6785;57.918;12.530;2023-05-10T08:44:33;5.60;;;3.20;;
13425;SDS011;6785;57.918;12.530;2023-05-10T08:47:02;6.33;;;2.90;;
13425;SDS011;6785;57.918;12.530;2023-05-10T08:49:31;5.00;;;2.63;;
13425;SDS011;6785;57.918;12.530;2023-05-10T08:51:59;4.40;;;2.80;;
13425;SDS011;6785;57.918;12.530;2023-05-10T08:54:30;4.20;;;2.93;;
13425;SDS011;6785;57.918;12.530;2023-05-10T08:56:58;3.77;;;2.73;;
13425;SDS011;6785;57.918;12.530;2023-05-10T08:59:25;4.27;;;2.77;;
13425;SDS011;6785;57.918;12.530;2023-05-10T09:01:52;3.90;;;2.77;;
13425;SDS011;6785;57.918;12.530;2023-05-10T09:04:20;5.33;;;2.77;;
13425;SDS011;6785;57.918;12.530;2023-05-10T09:06:47;4.93;;;2.70;;
13425;SDS011;6785;57.918;12.530;2023-05-10T09:09:14;4.03;;;2.57;;
13425;SDS011;6785;57.918;12.530;2023-05-10T09:11:44;5.60;;;2.70;;
13425;SDS011;6785;57.918;12.530;2023-05-10T09:14:11;5.37;;;3.33;;
13425;SDS011;6785;57.918;12.530;2023-05-10T09:16:39;5.43;;;2.63;;
13425;SDS011;6785;57.918;12.530;2023-05-10T09:19:06;5.60;;;3.00;;
13425;SDS011;6785;57.918;12.530;2023-05-10T09:21:34;5.03;;;2.50;;
13425;SDS011;6785;57.918;12.530;2023-05-10T09:24:03;4.70;;;2.47;;
13425;SDS011;6785;57.918;12.530;2023-05-10T09:26:30;2.90;;;2.33;;
13425;SDS011;6785;57.918;12.530;2023-05-10T09:28:59;4.33;;;2.53;;
13425;SDS011;6785;57.918;12.530;2023-05-10T09:34:09;6.53;;;2.70;;
13425;SDS011;6785;57.918;12.530;2023-05-10T09:36:36;5.77;;;2.97;;
13425;SDS011;6785;57.918;12.530;2023-05-10T09:39:15;8.13;;;2.80;;
13425;SDS011;6785;57.918;12.530;2023-05-10T09:41:41;3.23;;;2.30;;
13425;SDS011;6785;57.918;12.530;2023-05-10T09:44:10;7.53;;;3.07;;
13425;SDS011;6785;57.918;12.530;2023-05-10T09:46:37;5.23;;;2.40;;
13425;SDS011;6785;57.918;12.530;2023-05-10T09:49:04;3.70;;;2.30;;
13425;SDS011;6785;57.918;12.530;2023-05-10T09:51:31;3.60;;;2.43;;
13425;SDS011;6785;57.918;12.530;2023-05-10T09:54:08;5.10;;;2.77;;
13425;SDS011;6785;57.918;12.530;2023-05-10T09:56:36;6.90;;;2.60;;
13425;SDS011;6785;57.918;12.530;2023-05-10T09:59:05;6.43;;;2.77;;
13425;SDS011;6785;57.918;12.530;2023-05-10T10:01:35;4.90;;;2.47;;
13425;SDS011;6785;57.918;12.530;2023-05-10T10:04:03;6.67;;;2.80;;
13425;SDS011;6785;57.918;12.530;2023-05-10T10:06:34;2.97;;;2.43;;
13425;SDS011;6785;57.918;12.530;2023-05-10T10:09:02;6.27;;;2.50;;
13425;SDS011;6785;57.918;12.530;2023-05-10T10:11:29;3.50;;;2.67;;
13425;SDS011;6785;57.918;12.530;2023-05-10T10:13:56;5.50;;;3.10;;
13425;SDS011;6785;57.918;12.530;2023-05-10T10:16:23;4.33;;;2.53;;
13425;SDS011;6785;57.918;12.530;2023-05-10T10:18:52;5.70;;;2.80;;
13425;SDS011;6785;57.918;12.530;2023-05-10T10:21:19;4.70;;;2.47;;
13425;SDS011;6785;57.918;12.530;2023-05-10T10:23:47;6.73;;;2.70;;
13425;SDS011;6785;57.918;12.530;2023-05-10T10:26:14;6.67;;;2.90;;
13425;SDS011;6785;57.918;12.530;2023-05-10T10:28:44;5.13;;;2.50;;
13425;SDS011;6785;57.918;12.530;2023-05-10T10:31:21;4.57;;;2.53;;
13425;SDS011;6785;57.918;12.530;2023-05-10T10:34:00;5.27;;;2.80;;
13425;SDS011;6785;57.918;12.530;2023-05-10T10:36:31;2.70;;;2.43;;
13425;SDS011;6785;57.918;12.530;2023-05-10T10:39:02;3.90;;;2.80;;
13425;SDS011;6785;57.918;12.530;2023-05-10T10:41:35;3.67;;;2.70;;
13425;SDS011;6785;57.918;12.530;2023-05-10T10:47:24;3.30;;;2.40;;
13425;SDS011;6785;57.918;12.530;2023-05-10T10:50:06;3.83;;;2.43;;
13425;SDS011;6785;57.918;12.530;2023-05-10T10:52:34;4.90;;;2.37;;
13425;SDS011;6785;57.918;12.530;2023-05-10T10:55:03;12.00;;;2.90;;
13425;SDS011;6785;57.918;12.530;2023-05-10T10:57:32;2.97;;;2.20;;
13425;SDS011;6785;57.918;12.530;2023-05-10T11:00:18;3.03;;;2.53;;
13425;SDS011;6785;57.918;12.530;2023-05-10T11:02:49;4.50;;;2.50;;
13425;SDS011;6785;57.918;12.530;2023-05-10T11:05:33;3.57;;;2.40;;
13425;SDS011;6785;57.918;12.530;2023-05-10T11:08:06;5.17;;;2.63;;
13425;SDS011;6785;57.918;12.530;2023-05-10T11:10:35;4.30;;;2.23;;
13425;SDS011;6785;57.918;12.530;2023-05-10T11:13:03;5.07;;;2.57;;
13425;SDS011;6785;57.918;12.530;2023-05-10T11:15:31;3.00;;;2.30;;
13425;SDS011;6785;57.918;12.530;2023-05-10T11:17:59;7.50;;;2.77;;
13425;SDS011;6785;57.918;12.530;2023-05-10T11:20:43;2.87;;;2.53;;
13425;SDS011;6785;57.918;12.530;2023-05-10T11:23:12;4.10;;;2.40;;
13425;SDS011;6785;57.918;12.530;2023-05-10T11:25:41;6.87;;;2.90;;
13425;SDS011;6785;57.918;12.530;2023-05-10T11:28:10;3.73;;;2.70;;
13425;SDS011;6785;57.918;12.530;2023-05-10T11:30:37;5.00;;;2.53;;
13425;SDS011;6785;57.918;12.530;2023-05-10T11:33:05;8.10;;;2.77;;
13425;SDS011;6785;57.918;12.530;2023-05-10T11:35:36;9.67;;;3.00;;
13425;SDS011;6785;57.918;12.530;2023-05-10T11:38:06;3.93;;;2.40;;
13425;SDS011;6785;57.918;12.530;2023-05-10T11:40:33;4.97;;;2.37;;
13425;SDS011;6785;57.918;12.530;2023-05-10T11:43:00;3.60;;;2.50;;
13425;SDS011;6785;57.918;12.530;2023-05-10T11:45:27;3.63;;;2.50;;
13425;SDS011;6785;57.918;12.530;2023-05-10T11:47:56;4.40;;;2.53;;
13425;SDS011;6785;57.918;12.530;2023-05-10T11:50:23;4.77;;;2.20;;
13425;SDS011;6785;57.918;12.530;2023-05-10T11:52:51;8.37;;;2.90;;
13425;SDS011;6785;57.918;12.530;2023-05-10T11:55:20;5.00;;;2.57;;
13425;SDS011;6785;57.918;12.530;2023-05-10T11:57:47;3.53;;;2.77;;
13425;SDS011;6785;57.918;12.530;2023-05-10T12:00:18;5.43;;;2.43;;
13425;SDS011;6785;57.918;12.530;2023-05-10T12:02:45;4.57;;;2.40;;
13425;SDS011;6785;57.918;12.530;2023-05-10T12:05:12;3.60;;;2.20;;
13425;SDS011;6785;57.918;12.530;2023-05-10T12:07:39;5.50;;;2.50;;
13425;SDS011;6785;57.918;12.530;2023-05-10T12:10:07;2.93;;;2.50;;
13425;SDS011;6785;57.918;12.530;2023-05-10T12:12:38;5.03;;;2.30;;
13425;SDS011;6785;57.918;12.530;2023-05-10T12:15:10;6.80;;;2.50;;
13425;SDS011;6785;57.918;12.530;2023-05-10T12:17:37;3.57;;;2.60;;
13425;SDS011;6785;57.918;12.530;2023-05-10T12:20:15;2.83;;;2.30;;
13425;SDS011;6785;57.918;12.530;2023-05-10T12:22:46;4.87;;;2.53;;
13425;SDS011;6785;57.918;12.530;2023-05-10T12:25:13;3.13;;;2.50;;
13425;SDS011;6785;57.918;12.530;2023-05-10T12:27:42;3.97;;;2.37;;
13425;SDS011;6785;57.918;12.530;2023-05-10T12:30:18;4.13;;;2.40;;
13425;SDS011;6785;57.918;12.530;2023-05-10T12:32:45;6.97;;;4.60;;
13425;SDS011;6785;57.918;12.530;2023-05-10T12:35:12;4.17;;;2.60;;
13425;SDS011;6785;57.918;12.530;2023-05-10T12:37:39;3.33;;;2.57;;
13425;SDS011;6785;57.918;12.530;2023-05-10T12:40:06;2.93;;;2.20;;
13425;SDS011;6785;57.918;12.530;2023-05-10T12:42:36;3.93;;;2.33;;
13425;SDS011;6785;57.918;12.530;2023-05-10T12:45:05;7.07;;;2.40;;
13425;SDS011;6785;57.918;12.530;2023-05-10T12:47:33;4.37;;;2.70;;
13425;SDS011;6785;57.918;12.530;2023-05-10T12:50:01;2.30;;;1.90;;
13425;SDS011;6785;57.918;12.530;2023-05-10T12:52:28;4.37;;;2.57;;
13425;SDS011;6785;57.918;12.530;2023-05-10T12:54:57;3.73;;;2.13;;
13425;SDS011;6785;57.918;12.530;2023-05-10T12:57:24;3.10;;;2.67;;
13425;SDS011;6785;57.918;12.530;2023-05-10T12:59:50;5.07;;;2.20;;
13425;SDS011;6785;57.918;12.530;2023-05-10T13:02:19;4.40;;;2.50;;
13425;SDS011;6785;57.918;12.530;2023-05-10T13:04:46;2.57;;;2.27;;
13425;SDS011;6785;57.918;12.530;2023-05-10T13:07:14;2.10;;;1.90;;
13425;SDS011;6785;57.918;12.530;2023-05-10T13:09:40;2.83;;;2.33;;
13425;SDS011;6785;57.918;12.530;2023-05-10T13:12:08;3.17;;;2.00;;
13425;SDS011;6785;57.918;12.530;2023-05-10T13:14:35;2.93;;;2.00;;
13425;SDS011;6785;57.918;12.530;2023-05-10T13:17:02;5.03;;;2.17;;
13425;SDS011;6785;57.918;12.530;2023-05-10T13:19:30;4.73;;;2.40;;
13425;SDS011;6785;57.918;12.530;2023-05-10T13:21:57;5.80;;;2.13;;
13425;SDS011;6785;57.918;12.530;2023-05-10T13:24:23;4.07;;;2.00;;
13425;SDS011;6785;57.918;12.530;2023-05-10T13:26:50;2.50;;;2.00;;
13425;SDS011;6785;57.918;12.530;2023-05-10T13:29:17;4.53;;;2.20;;
13425;SDS011;6785;57.918;12.530;2023-05-10T13:31:46;7.80;;;2.30;;
13425;SDS011;6785;57.918;12.530;2023-05-10T13:34:13;3.23;;;2.50;;
13425;SDS011;6785;57.918;12.530;2023-05-10T13:36:41;4.03;;;2.20;;
13425;SDS011;6785;57.918;12.530;2023-05-10T13:39:08;2.10;;;1.90;;
13425;SDS011;6785;57.918;12.530;2023-05-10T13:41:35;9.07;;;2.30;;
13425;SDS011;6785;57.918;12.530;2023-05-10T13:44:02;3.70;;;2.30;;
13425;SDS011;6785;57.918;12.530;2023-05-10T13:46:29;4.00;;;2.30;;
13425;SDS011;6785;57.918;12.530;2023-05-10T13:48:55;5.60;;;2.20;;
13425;SDS011;6785;57.918;12.530;2023-05-10T13:51:22;4.50;;;2.30;;
13425;SDS011;6785;57.918;12.530;2023-05-10T13:53:51;3.63;;;2.10;;
13425;SDS011;6785;57.918;12.530;2023-05-10T13:56:18;5.43;;;2.20;;
13425;SDS011;6785;57.918;12.530;2023-05-10T13:58:44;2.97;;;2.20;;
13425;SDS011;6785;57.918;12.530;2023-05-10T14:01:12;2.50;;;2.20;;
13425;SDS011;6785;57.918;12.530;2023-05-10T14:03:39;3.90;;;2.00;;
13425;SDS011;6785;57.918;12.530;2023-05-10T14:06:06;5.67;;;2.47;;
13425;SDS011;6785;57.918;12.530;2023-05-10T14:08:33;4.47;;;2.00;;
13425;SDS011;6785;57.918;12.530;2023-05-10T14:11:02;8.17;;;2.50;;
13425;SDS011;6785;57.918;12.530;2023-05-10T14:13:29;5.23;;;2.20;;
13425;SDS011;6785;57.918;12.530;2023-05-10T14:15:56;7.10;;;2.33;;
13425;SDS011;6785;57.918;12.530;2023-05-10T14:18:25;4.97;;;2.40;;
13425;SDS011;6785;57.918;12.530;2023-05-10T14:20:52;2.53;;;2.10;;
13425;SDS011;6785;57.918;12.530;2023-05-10T14:23:19;6.07;;;2.17;;
13425;SDS011;6785;57.918;12.530;2023-05-10T14:25:49;4.10;;;2.03;;
13425;SDS011;6785;57.918;12.530;2023-05-10T14:28:17;6.17;;;2.00;;
13425;SDS011;6785;57.918;12.530;2023-05-10T14:30:45;3.60;;;2.40;;
13425;SDS011;6785;57.918;12.530;2023-05-10T14:33:12;3.97;;;2.10;;
13425;SDS011;6785;57.918;12.530;2023-05-10T14:35:39;4.63;;;1.90;;
13425;SDS011;6785;57.918;12.530;2023-05-10T14:38:06;4.90;;;2.10;;
13425;SDS011;6785;57.918;12.530;2023-05-10T14:40:33;4.30;;;2.13;;
13425;SDS011;6785;57.918;12.530;2023-05-10T14:43:00;5.17;;;2.40;;
13425;SDS011;6785;57.918;12.530;2023-05-10T14:45:28;4.37;;;2.10;;
13425;SDS011;6785;57.918;12.530;2023-05-10T14:47:56;3.97;;;2.40;;
13425;SDS011;6785;57.918;12.530;2023-05-10T14:50:24;2.17;;;1.87;;
13425;SDS011;6785;57.918;12.530;2023-05-10T14:52:50;3.73;;;2.13;;
13425;SDS011;6785;57.918;12.530;2023-05-10T14:55:17;4.07;;;2.20;;
13425;SDS011;6785;57.918;12.530;2023-05-10T14:57:45;7.47;;;2.40;;
13425;SDS011;6785;57.918;12.530;2023-05-10T15:00:14;3.37;;;2.53;;
13425;SDS011;6785;57.918;12.530;2023-05-10T15:02:43;7.27;;;2.20;;